createdAt,value
2022-10-14T00:00:00.799Z,7.94
2022-10-14T00:01:10.373Z,7.92
2022-10-14T00:02:12.508Z,7.85
2022-10-14T00:03:14.486Z,8.01
2022-10-14T00:04:16.673Z,7.91
2022-10-14T00:05:21.412Z,7.80
2022-10-14T00:06:29.691Z,7.70
2022-10-14T00:07:31.708Z,7.70
2022-10-14T00:08:34.083Z,7.74
2022-10-14T00:09:36.688Z,7.75
2022-10-14T00:10:40.392Z,7.79
2022-10-14T00:11:45.772Z,7.69
2022-10-14T00:12:47.869Z,7.71
2022-10-14T00:13:51.179Z,7.75
2022-10-14T00:14:53.325Z,7.75
2022-10-14T00:15:58.076Z,7.69
2022-10-14T00:17:01.283Z,7.71
2022-10-14T00:18:03.516Z,7.77
2022-10-14T00:19:06.574Z,7.74
2022-10-14T00:20:09.102Z,7.82
2022-10-14T00:21:11.353Z,7.84
2022-10-14T00:22:17.922Z,7.81
2022-10-14T00:23:20.467Z,7.79
2022-10-14T00:24:24.020Z,7.70
2022-10-14T00:25:29.142Z,7.64
2022-10-14T00:26:34.915Z,7.55
2022-10-14T00:27:36.930Z,7.64
2022-10-14T00:28:40.124Z,7.65
2022-10-14T00:29:42.404Z,7.68
2022-10-14T00:30:54.674Z,7.66
2022-10-14T00:31:56.892Z,7.53
2022-10-14T00:32:59.945Z,7.45
2022-10-14T00:34:02.173Z,7.60
2022-10-14T00:35:04.776Z,7.61
2022-10-14T00:36:07.881Z,7.59
2022-10-14T00:37:11.568Z,7.66
2022-10-14T00:38:15.189Z,7.63
2022-10-14T00:39:17.663Z,7.71
2022-10-14T00:40:21.799Z,7.79
2022-10-14T00:41:27.783Z,7.74
2022-10-14T00:42:34.709Z,7.63
2022-10-14T00:44:02.877Z,7.54
2022-10-14T00:45:15.748Z,7.47
2022-10-14T00:46:19.547Z,7.55
2022-10-14T00:47:22.940Z,7.41
2022-10-14T00:48:26.840Z,7.50
2022-10-14T00:49:41.087Z,7.41
2022-10-14T00:50:45.864Z,7.59
2022-10-14T00:52:17.507Z,7.68
2022-10-14T00:53:21.582Z,7.75
2022-10-14T00:54:34.397Z,7.67
2022-10-14T00:55:40.541Z,7.68
2022-10-14T00:56:46.050Z,7.74
2022-10-14T00:57:48.532Z,7.77
2022-10-14T00:58:51.758Z,7.82
2022-10-14T01:00:00.153Z,7.69
2022-10-14T01:01:08.114Z,7.73
2022-10-14T01:02:13.762Z,7.64
2022-10-14T01:03:28.276Z,7.73
2022-10-14T01:04:31.233Z,7.71
2022-10-14T01:05:41.606Z,7.52
2022-10-14T01:07:00.411Z,7.77
2022-10-14T01:08:21.206Z,7.64
2022-10-14T01:09:28.348Z,7.48
2022-10-14T01:10:39.161Z,7.52
2022-10-14T01:12:26.852Z,7.54
2022-10-14T01:13:35.136Z,7.66
2022-10-14T01:15:00.626Z,7.70
2022-10-14T01:16:17.843Z,7.65
2022-10-14T01:17:32.502Z,7.63
2022-10-14T01:18:56.396Z,7.63
2022-10-14T01:20:35.534Z,7.68
2022-10-14T01:21:45.743Z,7.60
2022-10-14T01:23:10.413Z,7.45
2022-10-14T01:24:37.423Z,7.51
2022-10-14T01:26:08.301Z,7.40
2022-10-14T01:27:28.876Z,7.38
2022-10-14T01:29:12.949Z,7.37
2022-10-14T01:30:19.834Z,7.41
2022-10-14T01:31:31.063Z,7.36
2022-10-14T01:32:39.366Z,7.41
2022-10-14T01:33:46.681Z,7.42
2022-10-14T01:35:15.073Z,7.49
2022-10-14T01:36:35.289Z,7.49
2022-10-14T01:37:43.562Z,7.44
2022-10-14T01:39:06.764Z,7.50
2022-10-14T01:40:17.744Z,7.50
2022-10-14T01:42:01.152Z,7.41
2022-10-14T01:43:06.082Z,7.46
2022-10-14T01:44:12.275Z,7.51
2022-10-14T01:45:20.741Z,7.51
2022-10-14T01:46:25.798Z,7.50
2022-10-14T01:47:31.384Z,7.49
2022-10-14T01:48:37.218Z,7.52
2022-10-14T01:49:47.684Z,7.52
2022-10-14T01:50:53.117Z,7.52
2022-10-14T01:52:05.957Z,7.56
2022-10-14T01:53:14.602Z,7.52
2022-10-14T01:54:22.998Z,7.36
2022-10-14T01:55:29.936Z,7.44
2022-10-14T01:56:37.048Z,7.48
2022-10-14T01:57:47.357Z,7.47
2022-10-14T01:58:52.211Z,7.49
2022-10-14T01:59:57.068Z,7.48
2022-10-14T02:01:03.833Z,7.45
2022-10-14T02:02:07.134Z,7.48
2022-10-14T02:03:13.332Z,7.52
2022-10-14T02:04:18.225Z,7.45
2022-10-14T02:05:36.699Z,7.42
2022-10-14T02:06:44.528Z,7.55
2022-10-14T02:07:52.352Z,7.37
2022-10-14T02:09:25.318Z,7.32
2022-10-14T02:10:41.987Z,7.43
2022-10-14T02:11:49.812Z,7.46
2022-10-14T02:13:20.661Z,7.40
2022-10-14T02:14:51.808Z,7.30
2022-10-14T02:15:56.390Z,7.40
2022-10-14T02:17:17.691Z,7.30
2022-10-14T02:18:40.630Z,7.23
2022-10-14T02:19:55.175Z,7.23
2022-10-14T02:21:07.262Z,7.25
2022-10-14T02:22:43.598Z,7.26
2022-10-14T02:24:35.244Z,7.27
2022-10-14T02:25:42.128Z,7.24
2022-10-14T02:26:46.664Z,7.31
2022-10-14T02:27:52.389Z,7.19
2022-10-14T02:28:58.329Z,7.22
2022-10-14T02:30:01.840Z,7.20
2022-10-14T02:31:09.223Z,7.16
2022-10-14T02:32:15.760Z,7.20
2022-10-14T02:33:22.734Z,7.14
2022-10-14T02:34:26.257Z,7.08
2022-10-14T02:35:32.908Z,7.11
2022-10-14T02:36:42.921Z,7.08
2022-10-14T02:37:47.980Z,7.11
2022-10-14T02:38:55.462Z,7.13
2022-10-14T02:40:12.317Z,7.12
2022-10-14T02:41:18.524Z,7.15
2022-10-14T02:42:20.849Z,7.22
2022-10-14T02:43:23.801Z,7.25
2022-10-14T02:44:25.849Z,7.32
2022-10-14T02:45:28.130Z,7.35
2022-10-14T02:46:30.455Z,7.35
2022-10-14T02:47:34.033Z,7.36
2022-10-14T02:48:36.535Z,7.35
2022-10-14T02:49:38.585Z,7.33
2022-10-14T02:50:43.460Z,7.36
2022-10-14T02:51:46.500Z,7.35
2022-10-14T02:52:48.600Z,7.24
2022-10-14T02:53:54.233Z,7.20
2022-10-14T02:54:56.714Z,7.28
2022-10-14T02:55:58.717Z,7.28
2022-10-14T02:57:00.908Z,7.30
2022-10-14T02:58:03.979Z,7.30
2022-10-14T02:59:06.160Z,7.26
2022-10-14T03:00:09.034Z,7.29
2022-10-14T03:01:11.456Z,7.25
2022-10-14T03:02:14.270Z,7.25
2022-10-14T03:03:17.276Z,7.05
2022-10-14T03:04:19.522Z,7.03
2022-10-14T03:05:21.550Z,7.16
2022-10-14T03:06:24.164Z,7.22
2022-10-14T03:07:26.453Z,7.10
2022-10-14T03:08:31.052Z,7.22
2022-10-14T03:09:34.972Z,7.27
2022-10-14T03:10:36.995Z,7.22
2022-10-14T03:11:39.321Z,7.11
2022-10-14T03:12:45.291Z,7.07
2022-10-14T03:13:56.019Z,7.07
2022-10-14T03:14:58.074Z,7.15
2022-10-14T03:16:01.723Z,7.07
2022-10-14T03:17:04.829Z,7.09
2022-10-14T03:18:08.918Z,7.11
2022-10-14T03:19:23.641Z,7.01
2022-10-14T03:20:28.835Z,6.94
2022-10-14T03:21:33.302Z,7.04
2022-10-14T03:22:38.437Z,7.08
2022-10-14T03:23:41.973Z,7.15
2022-10-14T03:24:45.235Z,7.09
2022-10-14T03:25:59.370Z,7.11
2022-10-14T03:27:09.615Z,7.14
2022-10-14T03:28:12.712Z,7.07
2022-10-14T03:29:26.868Z,6.94
2022-10-14T03:30:35.693Z,6.95
2022-10-14T03:31:45.189Z,6.98
2022-10-14T03:33:03.184Z,7.00
2022-10-14T03:34:27.492Z,6.95
2022-10-14T03:35:39.213Z,6.87
2022-10-14T03:36:46.513Z,6.88
2022-10-14T03:37:50.193Z,6.81
2022-10-14T03:38:55.998Z,6.84
2022-10-14T03:40:17.069Z,6.83
2022-10-14T03:41:19.327Z,6.79
2022-10-14T03:42:30.383Z,6.81
2022-10-14T03:43:32.470Z,6.74
2022-10-14T03:44:35.552Z,6.75
2022-10-14T03:46:01.518Z,6.73
2022-10-14T03:47:05.666Z,6.71
2022-10-14T03:48:09.710Z,6.71
2022-10-14T03:49:15.051Z,6.67
2022-10-14T03:50:17.087Z,6.62
2022-10-14T03:51:24.118Z,6.64
2022-10-14T03:52:28.076Z,6.60
2022-10-14T03:53:57.663Z,6.56
2022-10-14T03:55:03.967Z,6.52
2022-10-14T03:56:06.964Z,6.52
2022-10-14T03:57:11.112Z,6.47
2022-10-14T03:58:20.794Z,6.43
2022-10-14T03:59:27.554Z,6.41
2022-10-14T04:00:32.736Z,6.39
2022-10-14T04:01:53.311Z,6.40
2022-10-14T04:03:01.852Z,6.38
2022-10-14T04:04:12.850Z,6.37
2022-10-14T04:05:15.122Z,6.36
2022-10-14T04:06:19.510Z,6.32
2022-10-14T04:07:21.739Z,6.28
2022-10-14T04:08:29.397Z,6.25
2022-10-14T04:09:43.639Z,6.25
2022-10-14T04:10:51.528Z,6.17
2022-10-14T04:11:53.707Z,6.19
2022-10-14T04:13:28.033Z,6.18
2022-10-14T04:14:30.193Z,6.23
2022-10-14T04:15:35.956Z,6.23
2022-10-14T04:17:12.397Z,6.18
2022-10-14T04:18:14.550Z,6.13
2022-10-14T04:19:18.656Z,6.17
2022-10-14T04:20:21.297Z,6.18
2022-10-14T04:21:28.997Z,6.18
2022-10-14T04:22:33.486Z,6.17
2022-10-14T04:23:38.445Z,6.19
2022-10-14T04:24:51.391Z,6.15
2022-10-14T04:25:53.492Z,6.16
2022-10-14T04:26:56.475Z,6.13
2022-10-14T04:28:08.310Z,6.07
2022-10-14T04:29:28.353Z,6.02
2022-10-14T04:30:37.233Z,5.99
2022-10-14T04:31:40.787Z,5.99
2022-10-14T04:32:43.364Z,5.98
2022-10-14T04:33:46.137Z,5.99
2022-10-14T04:34:55.178Z,6.06
2022-10-14T04:36:02.164Z,6.06
2022-10-14T04:37:09.457Z,6.05
2022-10-14T04:38:44.012Z,5.99
2022-10-14T04:39:47.497Z,5.97
2022-10-14T04:40:49.711Z,5.96
2022-10-14T04:41:51.985Z,6.01
2022-10-14T04:42:57.480Z,6.00
2022-10-14T04:44:08.323Z,6.01
2022-10-14T04:45:18.126Z,6.04
2022-10-14T04:46:26.623Z,6.49
2022-10-14T04:47:29.544Z,6.79
2022-10-14T04:48:36.123Z,7.08
2022-10-14T04:49:40.139Z,8.00
2022-10-14T04:50:52.665Z,8.69
2022-10-14T04:52:17.655Z,9.00
2022-10-14T04:53:46.072Z,9.87
2022-10-14T04:55:06.640Z,10.42
2022-10-14T04:56:13.061Z,10.37
2022-10-14T04:57:25.037Z,10.78
2022-10-14T04:58:27.099Z,11.11
2022-10-14T04:59:31.182Z,11.01
2022-10-14T05:01:05.592Z,10.31
2022-10-14T05:02:12.260Z,10.11
2022-10-14T05:03:20.979Z,9.40
2022-10-14T05:04:24.100Z,9.30
2022-10-14T05:05:27.089Z,9.25
2022-10-14T05:06:32.128Z,8.96
2022-10-14T05:07:36.396Z,8.96
2022-10-14T05:08:55.958Z,8.74
2022-10-14T05:09:58.314Z,8.67
2022-10-14T05:11:10.339Z,8.59
2022-10-14T05:12:20.062Z,8.44
2022-10-14T05:13:28.891Z,8.42
2022-10-14T05:14:37.241Z,8.23
2022-10-14T05:15:50.629Z,8.37
2022-10-14T05:16:57.175Z,8.33
2022-10-14T05:18:04.685Z,8.40
2022-10-14T05:19:25.146Z,8.24
2022-10-14T05:20:28.700Z,8.31
2022-10-14T05:21:33.047Z,8.33
2022-10-14T05:22:48.268Z,8.43
2022-10-14T05:23:50.527Z,8.32
2022-10-14T05:24:52.893Z,8.20
2022-10-14T05:25:55.640Z,8.17
2022-10-14T05:26:59.368Z,8.15
2022-10-14T05:28:03.870Z,8.06
2022-10-14T05:29:05.988Z,8.00
2022-10-14T05:30:08.686Z,7.78
2022-10-14T05:31:16.117Z,7.51
2022-10-14T05:32:27.197Z,7.72
2022-10-14T05:33:36.639Z,7.59
2022-10-14T05:34:39.722Z,7.49
2022-10-14T05:35:58.479Z,7.37
2022-10-14T05:37:03.892Z,7.39
2022-10-14T05:38:14.015Z,7.30
2022-10-14T05:39:18.667Z,7.40
2022-10-14T05:40:21.015Z,7.46
2022-10-14T05:41:23.620Z,7.45
2022-10-14T05:42:27.902Z,7.45
2022-10-14T05:43:33.155Z,7.48
2022-10-14T05:44:37.811Z,7.52
2022-10-14T05:45:40.072Z,7.56
2022-10-14T05:46:45.125Z,7.58
2022-10-14T05:47:50.691Z,7.60
2022-10-14T05:48:56.759Z,7.57
2022-10-14T05:49:59.641Z,7.54
2022-10-14T05:51:03.843Z,7.58
2022-10-14T05:52:09.788Z,7.53
2022-10-14T05:53:12.626Z,7.41
2022-10-14T05:54:23.035Z,7.34
2022-10-14T05:55:43.112Z,7.31
2022-10-14T05:56:51.562Z,7.32
2022-10-14T05:58:02.064Z,7.40
2022-10-14T05:59:11.231Z,7.41
2022-10-14T06:00:21.836Z,7.35
2022-10-14T06:01:35.061Z,7.27
2022-10-14T06:02:39.094Z,7.34
2022-10-14T06:03:41.814Z,7.37
2022-10-14T06:04:44.967Z,7.40
2022-10-14T06:05:48.956Z,7.48
2022-10-14T06:06:51.831Z,7.47
2022-10-14T06:07:54.076Z,7.56
2022-10-14T06:08:57.358Z,7.50
2022-10-14T06:10:00.694Z,7.58
2022-10-14T06:11:03.732Z,7.55
2022-10-14T06:12:08.395Z,7.62
2022-10-14T06:13:11.618Z,7.65
2022-10-14T06:14:15.590Z,7.68
2022-10-14T06:15:20.883Z,7.54
2022-10-14T06:16:25.498Z,7.66
2022-10-14T06:17:29.482Z,7.70
2022-10-14T06:18:32.243Z,7.78
2022-10-14T06:19:36.184Z,7.57
2022-10-14T06:20:39.215Z,7.76
2022-10-14T06:21:44.443Z,7.72
2022-10-14T06:22:46.727Z,7.78
2022-10-14T06:23:53.292Z,7.62
2022-10-14T06:24:58.337Z,7.56
2022-10-14T06:26:07.746Z,7.66
2022-10-14T06:27:10.902Z,7.69
2022-10-14T06:28:14.970Z,7.70
2022-10-14T06:29:31.736Z,7.71
2022-10-14T06:30:35.240Z,7.85
2022-10-14T06:31:40.847Z,7.86
2022-10-14T06:32:49.077Z,7.90
2022-10-14T06:33:56.405Z,7.97
2022-10-14T06:35:02.017Z,8.12
2022-10-14T06:36:07.285Z,8.77
2022-10-14T06:37:12.069Z,9.80
2022-10-14T06:38:16.049Z,11.15
2022-10-14T06:39:20.992Z,12.34
2022-10-14T06:40:24.296Z,12.86
2022-10-14T06:41:28.959Z,13.63
2022-10-14T06:42:32.484Z,14.23
2022-10-14T06:43:35.711Z,14.93
2022-10-14T06:44:39.162Z,15.50
2022-10-14T06:45:41.797Z,16.17
2022-10-14T06:46:44.296Z,16.55
2022-10-14T06:47:48.036Z,16.80
2022-10-14T06:48:50.812Z,17.31
2022-10-14T06:49:53.924Z,17.61
2022-10-14T06:51:00.076Z,18.01
2022-10-14T06:52:04.418Z,18.18
2022-10-14T06:53:06.791Z,18.83
2022-10-14T06:54:09.456Z,18.79
2022-10-14T06:55:11.727Z,19.24
2022-10-14T06:56:14.166Z,19.26
2022-10-14T06:57:17.063Z,19.64
2022-10-14T06:58:19.403Z,19.62
2022-10-14T06:59:21.537Z,19.76
2022-10-14T07:00:23.698Z,20.27
2022-10-14T07:01:26.125Z,20.77
2022-10-14T07:02:28.473Z,20.05
2022-10-14T07:03:30.887Z,19.80
2022-10-14T07:04:33.154Z,20.52
2022-10-14T07:05:36.589Z,20.50
2022-10-14T07:06:38.776Z,20.53
2022-10-14T07:07:40.973Z,19.63
2022-10-14T07:08:43.363Z,19.86
2022-10-14T07:09:45.449Z,20.37
2022-10-14T07:10:48.411Z,21.02
2022-10-14T07:11:51.305Z,21.18
2022-10-14T07:12:55.242Z,21.52
2022-10-14T07:13:58.127Z,20.82
2022-10-14T07:15:00.474Z,21.08
2022-10-14T07:16:03.585Z,21.18
2022-10-14T07:17:08.388Z,21.39
2022-10-14T07:18:10.433Z,21.52
2022-10-14T07:19:12.950Z,21.73
2022-10-14T07:20:15.274Z,22.19
2022-10-14T07:21:17.515Z,21.74
2022-10-14T07:22:20.128Z,21.51
2022-10-14T07:23:22.721Z,21.83
2022-10-14T07:24:24.770Z,21.60
2022-10-14T07:25:27.026Z,21.72
2022-10-14T07:26:32.670Z,21.61
2022-10-14T07:27:34.960Z,21.45
2022-10-14T07:28:37.517Z,20.76
2022-10-14T07:29:39.651Z,20.17
2022-10-14T07:30:41.676Z,20.28
2022-10-14T07:31:43.778Z,20.65
2022-10-14T07:32:46.169Z,20.79
2022-10-14T07:33:49.634Z,20.26
2022-10-14T07:34:52.169Z,21.12
2022-10-14T07:35:54.300Z,21.02
2022-10-14T07:36:56.364Z,20.83
2022-10-14T07:38:00.440Z,21.18
2022-10-14T07:39:05.914Z,20.83
2022-10-14T07:40:08.933Z,19.66
2022-10-14T07:41:19.462Z,20.18
2022-10-14T07:42:21.804Z,20.30
2022-10-14T07:43:24.451Z,19.75
2022-10-14T07:44:27.461Z,19.49
2022-10-14T07:45:35.348Z,19.08
2022-10-14T07:46:40.564Z,19.23
2022-10-14T07:47:44.838Z,19.37
2022-10-14T07:48:56.531Z,19.86
2022-10-14T07:50:00.336Z,19.62
2022-10-14T07:51:04.032Z,20.48
2022-10-14T07:52:06.558Z,18.98
2022-10-14T07:53:08.824Z,19.88
2022-10-14T07:54:16.992Z,20.16
2022-10-14T07:55:20.512Z,19.54
2022-10-14T07:56:23.589Z,19.63
2022-10-14T07:57:27.832Z,19.76
2022-10-14T07:58:31.904Z,19.10
2022-10-14T07:59:34.109Z,18.40
2022-10-14T08:00:37.568Z,19.53
2022-10-14T08:01:39.906Z,18.32
2022-10-14T08:02:43.299Z,18.47
2022-10-14T08:03:47.411Z,18.25
2022-10-14T08:04:56.456Z,17.80
2022-10-14T08:06:06.933Z,18.36
2022-10-14T08:07:08.876Z,19.34
2022-10-14T08:08:12.173Z,18.85
2022-10-14T08:09:14.541Z,19.05
2022-10-14T08:10:17.964Z,19.63
2022-10-14T08:11:27.173Z,19.59
2022-10-14T08:12:29.360Z,19.52
2022-10-14T08:13:32.194Z,19.11
2022-10-14T08:14:34.410Z,18.54
2022-10-14T08:15:41.573Z,18.82
2022-10-14T08:16:44.367Z,18.23
2022-10-14T08:17:46.562Z,18.15
2022-10-14T08:18:49.191Z,17.59
2022-10-14T08:19:52.898Z,17.36
2022-10-14T08:20:55.149Z,17.13
2022-10-14T08:21:57.217Z,16.57
2022-10-14T08:22:59.760Z,15.53
2022-10-14T08:24:01.832Z,16.29
2022-10-14T08:25:04.457Z,17.25
2022-10-14T08:26:21.903Z,17.57
2022-10-14T08:27:26.799Z,17.98
2022-10-14T08:28:28.996Z,17.94
2022-10-14T08:29:31.157Z,16.92
2022-10-14T08:30:41.901Z,17.04
2022-10-14T08:31:44.651Z,17.15
2022-10-14T08:32:47.253Z,16.51
2022-10-14T08:33:50.029Z,16.30
2022-10-14T08:34:52.232Z,15.75
2022-10-14T08:35:54.721Z,16.23
2022-10-14T08:36:58.102Z,15.75
2022-10-14T08:38:02.003Z,16.48
2022-10-14T08:39:05.839Z,16.20
2022-10-14T08:40:08.840Z,15.72
2022-10-14T08:41:14.118Z,16.02
2022-10-14T08:42:19.619Z,16.31
2022-10-14T08:43:32.105Z,16.19
2022-10-14T08:44:45.966Z,15.64
2022-10-14T08:45:54.717Z,15.72
2022-10-14T08:47:01.716Z,15.94
2022-10-14T08:48:18.655Z,15.91
2022-10-14T08:49:46.335Z,15.96
2022-10-14T08:50:55.020Z,16.39
2022-10-14T08:52:11.142Z,16.28
2022-10-14T08:53:21.856Z,16.10
2022-10-14T08:54:38.908Z,16.48
2022-10-14T08:55:51.135Z,16.67
2022-10-14T08:56:54.899Z,16.37
2022-10-14T08:58:03.235Z,16.27
2022-10-14T08:59:13.999Z,16.14
2022-10-14T09:00:18.300Z,15.11
2022-10-14T09:01:34.794Z,14.59
2022-10-14T09:02:44.538Z,14.83
2022-10-14T09:03:46.785Z,14.74
2022-10-14T09:04:49.114Z,15.04
2022-10-14T09:05:58.222Z,15.29
2022-10-14T09:07:00.910Z,14.93
2022-10-14T09:08:03.371Z,14.80
2022-10-14T09:09:29.993Z,14.83
2022-10-14T09:10:36.924Z,14.74
2022-10-14T09:11:43.040Z,15.04
2022-10-14T09:12:45.776Z,14.89
2022-10-14T09:13:56.227Z,14.95
2022-10-14T09:15:27.677Z,14.60
2022-10-14T09:16:37.556Z,14.19
2022-10-14T09:17:50.543Z,14.01
2022-10-14T09:18:55.242Z,14.12
2022-10-14T09:20:16.747Z,13.30
2022-10-14T09:21:40.496Z,12.98
2022-10-14T09:22:57.489Z,12.92
2022-10-14T09:24:07.634Z,12.74
2022-10-14T09:25:16.986Z,13.11
2022-10-14T09:26:20.648Z,13.05
2022-10-14T09:27:24.241Z,13.21
2022-10-14T09:28:39.010Z,12.51
2022-10-14T09:30:01.785Z,12.46
2022-10-14T09:31:10.131Z,12.44
2022-10-14T09:32:21.051Z,12.52
2022-10-14T09:33:27.256Z,12.51
2022-10-14T09:34:35.033Z,12.87
2022-10-14T09:35:42.533Z,12.61
2022-10-14T09:36:47.400Z,12.69
2022-10-14T09:37:50.203Z,12.71
2022-10-14T09:38:55.877Z,12.38
2022-10-14T09:40:17.602Z,12.11
2022-10-14T09:41:31.242Z,12.16
2022-10-14T09:42:48.952Z,12.00
2022-10-14T09:44:14.512Z,12.47
2022-10-14T09:45:20.032Z,12.40
2022-10-14T09:46:27.224Z,12.66
2022-10-14T09:47:30.097Z,12.72
2022-10-14T09:48:38.632Z,12.82
2022-10-14T09:49:46.548Z,12.92
2022-10-14T09:50:52.188Z,12.63
2022-10-14T09:51:57.012Z,12.66
2022-10-14T09:53:22.678Z,12.74
2022-10-14T09:54:29.660Z,12.74
2022-10-14T09:55:33.166Z,12.67
2022-10-14T09:56:41.746Z,12.53
2022-10-14T09:57:44.877Z,12.41
2022-10-14T09:58:55.410Z,12.39
2022-10-14T10:00:01.238Z,12.56
2022-10-14T10:01:04.383Z,12.43
2022-10-14T10:02:23.511Z,12.29
2022-10-14T10:03:29.225Z,12.40
2022-10-14T10:04:48.009Z,12.31
2022-10-14T10:06:00.026Z,12.24
2022-10-14T10:07:08.318Z,11.93
2022-10-14T10:08:22.250Z,11.90
2022-10-14T10:09:24.955Z,12.22
2022-10-14T10:10:31.187Z,12.22
2022-10-14T10:11:38.188Z,12.39
2022-10-14T10:12:46.565Z,12.41
2022-10-14T10:13:48.612Z,12.09
2022-10-14T10:15:00.210Z,12.10
2022-10-14T10:16:06.159Z,12.30
2022-10-14T10:17:09.313Z,12.54
2022-10-14T10:18:29.442Z,12.69
2022-10-14T10:19:35.074Z,12.68
2022-10-14T10:20:37.854Z,12.57
2022-10-14T10:21:44.693Z,12.51
2022-10-14T10:22:48.350Z,12.65
2022-10-14T10:23:59.871Z,12.34
2022-10-14T10:25:02.155Z,12.32
2022-10-14T10:26:27.434Z,12.17
2022-10-14T10:27:36.918Z,12.33
2022-10-14T10:28:46.298Z,12.39
2022-10-14T10:29:48.450Z,12.12
2022-10-14T10:31:08.037Z,12.16
2022-10-14T10:32:16.850Z,12.26
2022-10-14T10:33:33.327Z,12.41
2022-10-14T10:34:54.751Z,12.33
2022-10-14T10:37:29.939Z,12.31
2022-10-14T10:38:39.622Z,12.42
2022-10-14T10:39:41.706Z,12.21
2022-10-14T10:41:28.038Z,12.24
2022-10-14T10:42:40.100Z,12.41
2022-10-14T10:43:50.867Z,12.29
2022-10-14T10:45:23.452Z,12.28
2022-10-14T10:46:40.874Z,12.47
2022-10-14T10:47:46.914Z,12.31
2022-10-14T10:49:15.352Z,12.20
2022-10-14T10:50:34.038Z,12.31
2022-10-14T10:51:39.048Z,12.40
2022-10-14T10:53:25.007Z,12.30
2022-10-14T10:54:49.006Z,12.47
2022-10-14T10:56:18.583Z,12.26
2022-10-14T10:57:36.812Z,11.77
2022-10-14T10:58:50.969Z,12.11
2022-10-14T11:00:06.422Z,11.88
2022-10-14T11:01:34.407Z,12.06
2022-10-14T11:02:48.827Z,12.07
2022-10-14T11:04:27.069Z,11.89
2022-10-14T11:05:29.119Z,11.76
2022-10-14T11:07:30.920Z,11.89
2022-10-14T11:08:58.330Z,11.88
2022-10-14T11:10:25.300Z,11.81
2022-10-14T11:12:03.635Z,11.56
2022-10-14T11:13:30.741Z,11.69
2022-10-14T11:15:07.250Z,11.70
2022-10-14T11:16:24.209Z,11.67
2022-10-14T11:18:07.026Z,11.55
2022-10-14T11:19:35.166Z,11.52
2022-10-14T11:20:56.324Z,11.68
2022-10-14T11:22:28.993Z,11.79
2022-10-14T11:23:50.203Z,11.94
2022-10-14T11:25:18.629Z,11.77
2022-10-14T11:26:47.716Z,11.75
2022-10-14T11:28:09.494Z,11.70
2022-10-14T11:29:23.459Z,11.70
2022-10-14T11:30:39.510Z,11.64
2022-10-14T11:31:55.200Z,11.79
2022-10-14T11:32:58.393Z,11.70
2022-10-14T11:34:12.771Z,11.75
2022-10-14T11:35:17.264Z,11.84
2022-10-14T11:36:25.268Z,12.00
2022-10-14T11:37:34.168Z,11.97
2022-10-14T11:38:52.324Z,11.96
2022-10-14T11:40:42.805Z,11.57
2022-10-14T11:42:25.300Z,11.61
2022-10-14T11:43:57.684Z,11.79
2022-10-14T11:45:34.921Z,11.84
2022-10-14T11:46:40.830Z,11.89
2022-10-14T11:47:47.898Z,11.63
2022-10-14T11:49:00.348Z,11.70
2022-10-14T11:50:17.660Z,11.75
2022-10-14T11:51:36.081Z,11.76
2022-10-14T11:52:46.066Z,11.93
2022-10-14T11:54:03.419Z,11.70
2022-10-14T11:55:14.769Z,11.72
2022-10-14T11:56:40.343Z,11.40
2022-10-14T11:57:50.872Z,11.48
2022-10-14T11:59:15.596Z,11.75
2022-10-14T12:00:57.661Z,11.97
2022-10-14T12:02:37.602Z,11.87
2022-10-14T12:03:59.109Z,12.01
2022-10-14T12:05:14.551Z,12.07
2022-10-14T12:06:26.225Z,12.15
2022-10-14T12:07:39.714Z,11.99
2022-10-14T12:09:07.448Z,11.83
2022-10-14T12:10:20.866Z,11.71
2022-10-14T12:11:38.494Z,11.65
2022-10-14T12:12:44.264Z,11.59
2022-10-14T12:13:52.598Z,11.62
2022-10-14T12:14:55.588Z,11.47
2022-10-14T12:16:01.166Z,11.57
2022-10-14T12:17:18.391Z,11.52
2022-10-14T12:18:22.499Z,11.42
2022-10-14T12:19:30.017Z,11.35
2022-10-14T12:20:59.093Z,11.38
2022-10-14T12:22:11.060Z,11.14
2022-10-14T12:23:29.566Z,11.28
2022-10-14T12:24:42.348Z,11.11
2022-10-14T12:25:58.785Z,11.06
2022-10-14T12:27:04.935Z,10.85
2022-10-14T12:28:09.186Z,10.92
2022-10-14T12:29:18.703Z,10.91
2022-10-14T12:30:39.914Z,10.86
2022-10-14T12:31:48.379Z,10.86
2022-10-14T12:33:07.575Z,10.81
2022-10-14T12:34:15.895Z,10.92
2022-10-14T12:35:51.190Z,10.66
2022-10-14T12:36:54.860Z,10.62
2022-10-14T12:38:04.093Z,10.52
2022-10-14T12:39:19.018Z,10.39
2022-10-14T12:40:26.791Z,10.48
2022-10-14T12:41:39.905Z,10.49
2022-10-14T12:42:44.630Z,10.49
2022-10-14T12:44:01.919Z,10.39
2022-10-14T12:45:16.866Z,10.40
2022-10-14T12:46:19.181Z,10.50
2022-10-14T12:47:41.604Z,10.37
2022-10-14T12:48:51.950Z,10.53
2022-10-14T12:50:04.826Z,10.44
2022-10-14T12:51:34.763Z,10.36
2022-10-14T12:52:39.065Z,10.37
2022-10-14T12:54:05.094Z,10.35
2022-10-14T12:55:22.926Z,10.31
2022-10-14T12:56:36.812Z,10.34
2022-10-14T12:57:42.194Z,10.24
2022-10-14T12:59:02.131Z,10.35
2022-10-14T13:00:28.969Z,10.29
2022-10-14T13:01:35.475Z,10.29
2022-10-14T13:02:45.817Z,10.24
2022-10-14T13:03:54.721Z,10.19
2022-10-14T13:04:57.166Z,10.19
2022-10-14T13:06:30.677Z,10.08
2022-10-14T13:07:41.578Z,10.12
2022-10-14T13:09:14.484Z,10.06
2022-10-14T13:10:38.453Z,10.04
2022-10-14T13:12:06.523Z,10.10
2022-10-14T13:13:45.213Z,10.03
2022-10-14T13:15:04.443Z,10.01
2022-10-14T13:16:10.485Z,10.06
2022-10-14T13:17:45.790Z,10.02
2022-10-14T13:19:05.606Z,10.10
2022-10-14T13:20:36.250Z,9.97
2022-10-14T13:21:53.529Z,10.03
2022-10-14T13:23:15.643Z,9.99
2022-10-14T13:24:29.220Z,9.93
2022-10-14T13:25:40.147Z,9.99
2022-10-14T13:26:56.167Z,10.00
2022-10-14T13:28:17.043Z,9.98
2022-10-14T13:29:36.309Z,9.90
2022-10-14T13:31:01.664Z,9.85
2022-10-14T13:32:33.702Z,9.82
2022-10-14T13:33:50.823Z,9.88
2022-10-14T13:35:36.026Z,9.82
2022-10-14T13:36:57.834Z,9.72
2022-10-14T13:38:13.234Z,9.73
2022-10-14T13:39:17.110Z,9.71
2022-10-14T13:40:36.107Z,9.72
2022-10-14T13:41:41.369Z,9.80
2022-10-14T13:42:49.299Z,9.79
2022-10-14T13:43:56.981Z,9.69
2022-10-14T13:45:07.156Z,9.69
2022-10-14T13:46:22.892Z,9.74
2022-10-14T13:47:26.590Z,9.72
2022-10-14T13:48:38.541Z,9.75
2022-10-14T13:49:42.092Z,9.71
2022-10-14T13:50:51.307Z,9.72
2022-10-14T13:52:00.581Z,9.76
2022-10-14T13:53:14.299Z,9.72
2022-10-14T13:54:26.019Z,9.67
2022-10-14T13:55:29.875Z,9.65
2022-10-14T13:56:32.967Z,9.60
2022-10-14T13:58:00.028Z,9.59
2022-10-14T13:58:59.055Z,9.47
2022-10-14T14:01:34.321Z,9.46
2022-10-14T14:02:38.986Z,9.43
2022-10-14T14:03:45.437Z,9.39
2022-10-14T14:04:55.414Z,9.41
2022-10-14T14:06:00.221Z,9.39
2022-10-14T14:07:33.202Z,9.37
2022-10-14T14:08:40.507Z,9.36
2022-10-14T14:09:51.715Z,9.29
2022-10-14T14:11:18.065Z,9.29
2022-10-14T14:12:22.797Z,9.30
2022-10-14T14:13:26.786Z,9.27
2022-10-14T14:14:37.597Z,9.24
2022-10-14T14:15:40.686Z,9.20
2022-10-14T14:17:00.518Z,9.23
2022-10-14T14:18:04.528Z,9.22
2022-10-14T14:19:17.898Z,9.15
2022-10-14T14:20:33.298Z,9.23
2022-10-14T14:21:36.051Z,9.12
2022-10-14T14:22:44.384Z,9.17
2022-10-14T14:23:59.995Z,9.23
2022-10-14T14:25:55.605Z,9.13
2022-10-14T14:26:49.472Z,9.14
2022-10-14T14:27:57.361Z,9.21
2022-10-14T14:29:00.948Z,9.21
2022-10-14T14:30:08.589Z,9.28
2022-10-14T14:31:16.989Z,9.35
2022-10-14T14:32:23.705Z,9.38
2022-10-14T14:33:32.539Z,9.38
2022-10-14T14:34:38.822Z,9.41
2022-10-14T14:35:54.501Z,9.43
2022-10-14T14:37:16.587Z,9.54
2022-10-14T14:38:56.786Z,9.53
2022-10-14T14:40:15.317Z,9.54
2022-10-14T14:41:23.666Z,9.55
2022-10-14T14:42:32.114Z,9.56
2022-10-14T14:43:40.847Z,9.60
2022-10-14T14:44:50.351Z,9.67
2022-10-14T14:45:53.612Z,9.62
2022-10-14T14:47:02.405Z,9.51
2022-10-14T14:48:07.367Z,9.56
2022-10-14T14:49:17.654Z,9.64
2022-10-14T14:50:31.611Z,9.71
2022-10-14T14:51:38.262Z,9.75
2022-10-14T14:52:41.866Z,9.67
2022-10-14T14:53:52.512Z,9.77
2022-10-14T14:54:57.143Z,9.79
2022-10-14T14:56:11.871Z,9.72
2022-10-14T14:57:22.145Z,9.78
2022-10-14T14:58:30.031Z,9.74
2022-10-14T14:59:40.933Z,9.77
2022-10-14T15:00:46.368Z,9.83
2022-10-14T15:01:49.811Z,9.77
2022-10-14T15:03:00.220Z,9.79
2022-10-14T15:04:12.126Z,9.79
2022-10-14T15:05:20.569Z,9.77
2022-10-14T15:06:25.361Z,9.84
2022-10-14T15:07:28.097Z,9.79
2022-10-14T15:08:35.672Z,9.52
2022-10-14T15:09:57.445Z,9.66
2022-10-14T15:11:01.443Z,9.69
2022-10-14T15:12:12.702Z,9.74
2022-10-14T15:13:28.022Z,9.67
2022-10-14T15:14:47.750Z,9.59
2022-10-14T15:15:54.079Z,9.57
2022-10-14T15:16:57.540Z,9.54
2022-10-14T15:18:21.020Z,9.54
2022-10-14T15:20:14.117Z,9.67
2022-10-14T15:21:19.637Z,9.62